Time;durP1;ratioP1;P1;durP2;ratioP2;P2;SDS_P1;SDS_P2;PMS_P1;PMS_P2;Temp;Humidity;BMP_temperature;BMP_pressure;BME280_temperature;BME280_humidity;BME280_pressure;Samples;Min_cycle;Max_cycle;Signal;HPM_P1;HPM_P2
2022/12/30 00:02:15;;;;;;;64.63;27.67;;;0.60;99.90;;;;;;6221586;23;20027;-79
2022/12/30 00:04:43;;;;;;;68.22;27.13;;;0.60;99.90;;;;;;6244240;23;20086;-79
2022/12/30 00:07:11;;;;;;;72.90;27.50;;;1.20;99.90;;;;;;6244210;23;20032;-79
2022/12/30 00:09:38;;;;;;;67.95;26.80;;;0.60;99.90;;;;;;6268182;23;20016;-79
2022/12/30 00:34:43;;;;;;;50.65;22.25;;;0.20;99.90;;;;;;6264700;23;20027;-79
2022/12/30 00:37:10;;;;;;;57.70;23.08;;;0.60;99.90;;;;;;6238429;23;20019;-79
2022/12/30 00:39:38;;;;;;;66.25;23.30;;;0.40;99.90;;;;;;6239991;23;20016;-80
2022/12/30 00:44:51;;;;;;;65.85;23.70;;;0.80;99.90;;;;;;6259242;23;20470;-79
2022/12/30 00:47:19;;;;;;;66.60;22.63;;;0.70;99.90;;;;;;6260341;23;20029;-79
2022/12/30 00:58:04;;;;;;;73.28;26.75;;;0.80;99.90;;;;;;6259638;23;20020;-79
2022/12/30 01:00:32;;;;;;;62.42;24.00;;;0.80;99.90;;;;;;6260168;23;20020;-79
2022/12/30 01:03:02;;;;;;;68.68;24.20;;;0.80;99.90;;;;;;6235521;23;20020;-79
2022/12/30 01:05:30;;;;;;;67.07;25.40;;;1.00;99.90;;;;;;6237187;23;20083;-79
2022/12/30 01:07:58;;;;;;;69.10;25.63;;;0.80;99.90;;;;;;6262548;23;20443;-79
2022/12/30 01:10:25;;;;;;;71.05;24.77;;;-0.20;99.90;;;;;;6260628;23;20077;-79
2022/12/30 01:12:53;;;;;;;67.15;25.70;;;0.70;99.90;;;;;;6232375;23;20394;-79
2022/12/30 01:15:21;;;;;;;71.00;24.45;;;0.70;99.90;;;;;;6235415;23;20016;-79
2022/12/30 01:17:49;;;;;;;58.95;23.88;;;0.70;99.90;;;;;;6257411;23;20012;-79
2022/12/30 01:20:16;;;;;;;70.57;25.95;;;0.70;99.90;;;;;;6251526;23;20392;-79
2022/12/30 01:22:44;;;;;;;72.70;25.88;;;0.70;99.90;;;;;;6227284;23;20027;-79
2022/12/30 01:25:12;;;;;;;66.10;24.77;;;0.70;99.90;;;;;;6253596;22;20088;-79
2022/12/30 01:27:39;;;;;;;78.35;29.38;;;0.70;99.90;;;;;;6253092;23;20455;-79
2022/12/30 01:30:08;;;;;;;70.82;27.75;;;0.80;99.90;;;;;;6225124;23;20387;-79
2022/12/30 01:32:36;;;;;;;61.50;24.92;;;0.70;99.90;;;;;;6226245;23;20090;-79
2022/12/30 01:35:04;;;;;;;68.50;26.40;;;0.80;99.90;;;;;;6228107;23;20070;-79
2022/12/30 01:37:32;;;;;;;74.82;26.40;;;0.80;99.90;;;;;;6226038;23;20020;-79
2022/12/30 01:40:00;;;;;;;63.72;24.63;;;0.70;99.90;;;;;;6246356;23;20054;-79
2022/12/30 01:42:30;;;;;;;73.55;27.35;;;0.70;99.90;;;;;;6246888;23;20031;-79
2022/12/30 01:45:00;;;;;;;76.78;27.25;;;0.70;99.90;;;;;;6243905;23;20470;-79
2022/12/30 01:47:54;;;;;;;79.70;27.98;;;0.70;99.90;;;;;;6217775;23;20024;-79
2022/12/30 01:50:35;;;;;;;63.22;24.50;;;0.20;99.90;;;;;;6244069;23;20107;-79
2022/12/30 01:53:13;;;;;;;65.97;24.10;;;0.60;99.90;;;;;;6219136;23;20044;-79
2022/12/30 01:55:59;;;;;;;75.78;26.98;;;0.60;99.90;;;;;;6217810;23;20026;-79
2022/12/30 01:58:34;;;;;;;71.50;25.58;;;0.60;99.90;;;;;;6217276;23;20503;-79
2022/12/30 02:01:06;;;;;;;74.50;27.17;;;0.60;99.90;;;;;;6218747;23;20099;-79
2022/12/30 02:03:44;;;;;;;74.18;27.88;;;0.60;99.90;;;;;;6217875;23;20395;-79
2022/12/30 02:06:17;;;;;;;71.18;24.90;;;0.50;99.90;;;;;;6218251;23;20115;-79
2022/12/30 02:08:44;;;;;;;57.72;22.95;;;0.60;99.90;;;;;;6221362;23;20020;-79
2022/12/30 02:11:12;;;;;;;65.75;23.75;;;0.60;99.90;;;;;;6246505;23;20020;-79
2022/12/30 02:13:40;;;;;;;67.40;25.17;;;0.50;99.90;;;;;;6247631;23;20023;-79
2022/12/30 02:16:18;;;;;;;63.17;24.30;;;0.40;99.90;;;;;;6247167;23;20020;-79
2022/12/30 02:19:07;;;;;;;67.32;24.48;;;0.50;99.90;;;;;;6220160;23;20028;-79
2022/12/30 02:21:45;;;;;;;67.10;23.60;;;0.40;99.90;;;;;;6246946;23;20023;-79
2022/12/30 02:24:30;;;;;;;78.40;25.90;;;0.40;99.90;;;;;;6246784;23;20082;-79
2022/12/30 02:27:35;;;;;;;65.55;24.00;;;0.70;99.90;;;;;;6246399;23;20703;-79
2022/12/30 02:30:18;;;;;;;63.42;24.08;;;0.40;99.90;;;;;;6222683;23;20023;-79
2022/12/30 02:33:01;;;;;;;61.83;23.83;;;0.30;99.90;;;;;;6223368;23;20020;-79
2022/12/30 02:35:46;;;;;;;69.23;24.87;;;0.60;99.90;;;;;;6249084;23;20249;-79
2022/12/30 02:38:19;;;;;;;67.80;24.65;;;0.40;99.90;;;;;;6249095;23;20248;-79
2022/12/30 02:47:04;;;;;;;65.63;24.55;;;0.30;99.90;;;;;;6248480;23;20051;-79
2022/12/30 02:49:35;;;;;;;74.95;26.73;;;0.40;99.90;;;;;;6224969;23;20106;-79
2022/12/30 02:52:16;;;;;;;87.30;29.00;;;0.40;99.90;;;;;;6224171;23;20016;-79
2022/12/30 02:54:48;;;;;;;85.50;29.38;;;0.20;99.90;;;;;;6226462;23;20016;-79
2022/12/30 02:57:23;;;;;;;80.25;28.02;;;0.40;99.90;;;;;;6224184;23;20052;-79
2022/12/30 03:06:34;;;;;;;77.15;27.40;;;0.40;99.90;;;;;;6251897;23;20016;-80
2022/12/30 03:09:11;;;;;;;75.88;27.02;;;0.50;99.90;;;;;;6254524;23;20110;-79
2022/12/30 03:11:53;;;;;;;71.35;25.40;;;0.40;99.90;;;;;;6228267;23;20027;-79
2022/12/30 03:14:36;;;;;;;66.60;24.45;;;0.30;99.90;;;;;;6253134;23;20020;-79
2022/12/30 03:17:19;;;;;;;81.55;29.23;;;0.50;99.90;;;;;;6228799;23;20043;-79
2022/12/30 03:19:52;;;;;;;66.82;25.38;;;0.50;99.90;;;;;;6229442;23;20027;-79
2022/12/30 03:28:00;;;;;;;63.33;24.42;;;0.40;99.90;;;;;;6252503;23;20034;-79
2022/12/30 03:30:32;;;;;;;64.45;25.52;;;0.70;99.90;;;;;;6231628;23;20079;-79
2022/12/30 03:32:59;;;;;;;66.03;24.67;;;0.70;99.90;;;;;;6231602;23;20035;-79
2022/12/30 03:35:29;;;;;;;66.13;24.52;;;0.60;99.90;;;;;;6226969;23;20020;-79
2022/12/30 03:37:59;;;;;;;63.97;25.50;;;0.60;99.90;;;;;;6255161;23;20436;-79
2022/12/30 03:40:33;;;;;;;61.05;23.77;;;0.50;99.90;;;;;;6257707;23;20035;-79
2022/12/30 03:43:02;;;;;;;66.43;24.77;;;0.60;99.90;;;;;;6232870;23;20024;-79
2022/12/30 03:45:29;;;;;;;56.60;22.88;;;0.50;99.90;;;;;;6235124;23;20031;-79
2022/12/30 03:47:57;;;;;;;58.38;22.30;;;0.20;99.90;;;;;;6233674;23;20028;-79
2022/12/30 03:50:24;;;;;;;73.22;24.75;;;0.60;99.90;;;;;;6237526;23;20024;-79
2022/12/30 03:52:54;;;;;;;65.63;23.38;;;0.60;99.90;;;;;;6240398;23;20012;-79
2022/12/30 03:55:22;;;;;;;68.50;24.45;;;0.60;99.90;;;;;;6241398;23;20023;-79
2022/12/30 03:57:49;;;;;;;65.85;21.73;;;0.70;99.90;;;;;;6242767;23;20000;-79
2022/12/30 04:00:16;;;;;;;62.85;20.20;;;0.50;99.90;;;;;;6242392;23;20028;-79
2022/12/30 04:02:44;;;;;;;80.95;24.50;;;0.60;99.90;;;;;;6267618;23;20027;-79
2022/12/30 04:05:16;;;;;;;59.13;22.10;;;0.80;99.90;;;;;;6267249;23;20016;-79
2022/12/30 04:07:44;;;;;;;64.07;21.15;;;0.60;99.90;;;;;;6243029;23;20127;-79
2022/12/30 04:10:11;;;;;;;76.28;22.48;;;0.60;99.90;;;;;;6267497;23;20027;-79
2022/12/30 04:12:40;;;;;;;81.38;23.30;;;0.80;99.90;;;;;;6266414;23;20076;-79
2022/12/30 04:15:08;;;;;;;68.05;22.20;;;0.60;99.90;;;;;;6244204;22;20571;-79
2022/12/30 04:17:35;;;;;;;71.28;22.85;;;0.60;99.90;;;;;;6243529;23;20016;-79
2022/12/30 04:20:03;;;;;;;71.65;22.13;;;0.60;99.90;;;;;;6270152;23;20016;-79
2022/12/30 04:22:31;;;;;;;69.43;22.80;;;0.80;99.90;;;;;;6245148;23;20028;-79
2022/12/30 04:24:58;;;;;;;76.15;23.77;;;0.70;99.90;;;;;;6267601;22;20038;-79
2022/12/30 04:27:26;;;;;;;65.88;23.13;;;0.70;99.90;;;;;;6244039;23;20020;-79
2022/12/30 04:29:56;;;;;;;66.18;23.77;;;0.70;99.90;;;;;;6268555;23;20017;-79
2022/12/30 04:32:23;;;;;;;70.20;24.33;;;0.70;99.90;;;;;;6242314;23;20039;-80
2022/12/30 04:34:51;;;;;;;73.88;23.58;;;0.70;99.90;;;;;;6269761;23;20022;-80
2022/12/30 04:37:18;;;;;;;72.90;22.38;;;0.70;99.90;;;;;;6245572;23;20006;-80
2022/12/30 04:39:46;;;;;;;74.18;23.05;;;0.80;99.90;;;;;;6243662;23;20022;-80
2022/12/30 04:42:14;;;;;;;71.20;23.00;;;0.70;99.90;;;;;;6243537;23;20087;-80
2022/12/30 04:44:44;;;;;;;70.57;22.52;;;-0.30;99.90;;;;;;6267564;23;20027;-80
2022/12/30 04:47:11;;;;;;;79.78;23.80;;;0.60;99.90;;;;;;6240597;23;20039;-80
2022/12/30 04:49:39;;;;;;;77.88;25.02;;;0.80;99.90;;;;;;6264130;23;20099;-80
2022/12/30 04:52:06;;;;;;;87.50;26.23;;;0.90;99.90;;;;;;6237833;23;19992;-80
2022/12/30 04:54:34;;;;;;;79.57;25.00;;;0.80;99.90;;;;;;6263555;23;20087;-80
2022/12/30 04:57:01;;;;;;;73.32;24.50;;;0.80;99.90;;;;;;6206882;23;20080;-80
2022/12/30 04:59:29;;;;;;;76.50;23.55;;;0.80;99.90;;;;;;6209470;23;20430;-80
2022/12/30 05:01:57;;;;;;;70.07;23.25;;;0.80;99.90;;;;;;6182320;23;20024;-80
2022/12/30 05:04:24;;;;;;;77.63;24.52;;;0.80;99.90;;;;;;6181568;23;20531;-80
2022/12/30 05:06:55;;;;;;;79.05;24.50;;;0.90;99.90;;;;;;6207443;23;20035;-80
2022/12/30 05:09:23;;;;;;;73.63;23.73;;;0.90;99.90;;;;;;6182779;23;20048;-80
2022/12/30 05:11:53;;;;;;;79.25;24.83;;;0.90;99.90;;;;;;6208950;23;20021;-80
2022/12/30 05:14:21;;;;;;;79.72;25.38;;;0.80;99.90;;;;;;6178845;23;20024;-79
2022/12/30 05:16:49;;;;;;;71.63;23.15;;;0.80;99.90;;;;;;6202176;23;20016;-79
2022/12/30 05:19:16;;;;;;;87.10;26.05;;;0.90;99.90;;;;;;6202746;23;20047;-79
2022/12/30 05:21:44;;;;;;;76.72;25.17;;;0.90;99.90;;;;;;6177825;23;20016;-79
2022/12/30 05:26:58;;;;;;;83.95;28.23;;;0.80;99.90;;;;;;6227928;23;20016;-79
2022/12/30 05:29:25;;;;;;;92.80;28.92;;;0.90;99.90;;;;;;6259525;22;20016;-79
2022/12/30 05:31:53;;;;;;;93.22;27.48;;;1.00;99.90;;;;;;6256744;23;20020;-79
2022/12/30 05:34:21;;;;;;;79.00;27.23;;;0.90;99.90;;;;;;6235203;23;20078;-79
2022/12/30 05:36:48;;;;;;;73.00;25.55;;;0.90;99.90;;;;;;6227973;23;20020;-79
2022/12/30 05:39:16;;;;;;;82.38;27.42;;;0.90;99.90;;;;;;6229067;23;20020;-79
2022/12/30 05:41:43;;;;;;;80.10;27.95;;;1.00;99.90;;;;;;6230960;23;20016;-79
2022/12/30 05:44:11;;;;;;;81.53;25.98;;;1.00;99.90;;;;;;6253588;23;20337;-79
2022/12/30 05:46:39;;;;;;;83.40;27.00;;;1.00;99.90;;;;;;6253307;23;20023;-79
2022/12/30 05:49:06;;;;;;;80.35;28.27;;;1.00;99.90;;;;;;6228867;23;20428;-79
2022/12/30 05:51:34;;;;;;;91.38;29.88;;;1.10;99.90;;;;;;6228922;23;20027;-79
2022/12/30 05:54:02;;;;;;;125.93;40.10;;;1.10;99.90;;;;;;6253367;23;20020;-79
2022/12/30 05:56:29;;;;;;;102.68;33.38;;;1.20;99.90;;;;;;6230649;23;20079;-79
2022/12/30 05:58:57;;;;;;;101.05;32.53;;;0.30;99.90;;;;;;6230603;23;20023;-79
2022/12/30 06:01:44;;;;;;;97.68;29.95;;;0.40;99.90;;;;;;6253129;23;20023;-79
2022/12/30 06:04:12;;;;;;;84.75;26.88;;;1.20;99.90;;;;;;6205303;23;20047;-80
2022/12/30 06:06:41;;;;;;;71.18;24.83;;;0.40;99.90;;;;;;6230750;23;20020;-80
2022/12/30 06:09:08;;;;;;;83.38;26.17;;;1.10;99.90;;;;;;6255997;23;20028;-80
2022/12/30 06:11:36;;;;;;;83.10;27.98;;;1.30;99.90;;;;;;6206401;23;20027;-80
2022/12/30 06:14:04;;;;;;;91.45;27.42;;;1.40;99.90;;;;;;6226876;23;20047;-80
2022/12/30 06:16:31;;;;;;;88.60;29.60;;;1.20;99.90;;;;;;6230971;23;20050;-79
2022/12/30 06:18:59;;;;;;;86.25;29.90;;;0.30;99.90;;;;;;6229795;23;20038;-79
2022/12/30 06:21:27;;;;;;;95.75;32.20;;;1.30;99.90;;;;;;6228747;23;20012;-79
2022/12/30 06:23:55;;;;;;;96.65;31.05;;;1.30;99.90;;;;;;6233413;23;20016;-79
2022/12/30 06:26:23;;;;;;;94.63;32.10;;;1.40;99.90;;;;;;6229828;23;20024;-79
2022/12/30 06:28:50;;;;;;;97.72;32.58;;;1.30;99.90;;;;;;6225692;23;20085;-79
2022/12/30 06:31:19;;;;;;;93.13;31.70;;;1.40;99.90;;;;;;6228255;23;20078;-79
2022/12/30 06:33:46;;;;;;;98.43;31.48;;;1.40;99.90;;;;;;6202090;23;20522;-79
2022/12/30 06:36:14;;;;;;;93.75;31.88;;;1.40;99.90;;;;;;6227116;23;20459;-79
2022/12/30 06:38:42;;;;;;;90.38;31.15;;;1.40;99.90;;;;;;6256008;23;20026;-79
2022/12/30 06:41:09;;;;;;;83.85;27.08;;;1.40;99.90;;;;;;6257882;23;20020;-79
2022/12/30 06:43:37;;;;;;;81.18;28.52;;;1.40;99.90;;;;;;6230060;23;20075;-79
2022/12/30 06:46:05;;;;;;;99.05;30.77;;;1.30;99.90;;;;;;6254688;23;20020;-79
2022/12/30 06:48:32;;;;;;;81.63;28.17;;;2.00;99.90;;;;;;6259446;23;20024;-79
2022/12/30 06:51:03;;;;;;;68.28;24.98;;;1.40;99.90;;;;;;6242495;23;20032;-79
2022/12/30 06:53:31;;;;;;;67.55;25.23;;;1.40;99.90;;;;;;6226165;23;20024;-79
2022/12/30 06:55:59;;;;;;;74.10;26.23;;;1.40;99.90;;;;;;6226276;23;20016;-79
2022/12/30 06:58:27;;;;;;;72.28;25.05;;;0.60;99.90;;;;;;6253336;23;20020;-79
2022/12/30 07:00:55;;;;;;;83.15;28.63;;;1.50;99.90;;;;;;6223662;23;20012;-79
2022/12/30 07:03:23;;;;;;;71.90;26.10;;;1.60;99.90;;;;;;6243909;22;20027;-79
2022/12/30 07:05:51;;;;;;;69.72;25.13;;;1.30;99.90;;;;;;6217242;23;20067;-79
2022/12/30 07:08:18;;;;;;;76.88;25.60;;;1.40;99.90;;;;;;6242920;23;20029;-78
2022/12/30 07:10:46;;;;;;;68.72;24.55;;;1.50;99.90;;;;;;6242554;23;20020;-78
2022/12/30 07:13:18;;;;;;;83.15;27.75;;;1.50;99.90;;;;;;6219846;23;20020;-78
2022/12/30 07:15:47;;;;;;;79.50;26.10;;;1.50;99.90;;;;;;6242558;23;20017;-78
2022/12/30 07:18:14;;;;;;;70.40;24.88;;;0.50;99.90;;;;;;6245224;23;20464;-78
2022/12/30 07:20:43;;;;;;;66.55;24.88;;;1.50;99.90;;;;;;6220031;23;20020;-78
2022/12/30 07:23:10;;;;;;;69.90;24.48;;;1.60;99.90;;;;;;6219906;23;20050;-78
2022/12/30 07:25:44;;;;;;;68.85;25.23;;;1.60;99.90;;;;;;6220224;23;20528;-79
2022/12/30 07:28:12;;;;;;;74.22;24.92;;;2.40;99.90;;;;;;6246519;23;20032;-79
2022/12/30 07:30:40;;;;;;;60.70;24.20;;;1.60;99.90;;;;;;6245293;23;20054;-79
2022/12/30 07:33:09;;;;;;;66.03;24.13;;;1.70;99.90;;;;;;6219429;23;20063;-79
2022/12/30 07:35:39;;;;;;;67.07;23.75;;;1.50;99.90;;;;;;6217083;23;20047;-79
2022/12/30 07:38:07;;;;;;;68.57;24.55;;;1.60;99.90;;;;;;6241581;23;20055;-79
2022/12/30 07:40:36;;;;;;;66.57;23.27;;;2.00;99.90;;;;;;6221701;23;20443;-78
2022/12/30 07:43:04;;;;;;;70.07;25.00;;;1.60;99.90;;;;;;6217502;23;20022;-78
2022/12/30 07:45:31;;;;;;;56.97;20.67;;;1.70;99.90;;;;;;6243876;23;20040;-78
2022/12/30 07:47:59;;;;;;;67.78;24.80;;;1.60;99.90;;;;;;6218875;23;20022;-78
2022/12/30 07:50:27;;;;;;;63.42;22.48;;;1.80;99.90;;;;;;6244038;23;20099;-78
2022/12/30 07:52:54;;;;;;;63.05;23.02;;;1.60;99.90;;;;;;6218695;23;20026;-78
2022/12/30 07:55:28;;;;;;;62.20;21.92;;;1.90;99.90;;;;;;6219037;23;20028;-79
2022/12/30 07:57:56;;;;;;;59.55;23.33;;;1.80;99.90;;;;;;6213787;23;20022;-79
2022/12/30 08:00:24;;;;;;;64.30;23.15;;;1.90;99.90;;;;;;6233798;23;20384;-78
2022/12/30 08:02:53;;;;;;;67.30;24.65;;;1.90;99.90;;;;;;6211269;23;20816;-79
2022/12/30 08:05:23;;;;;;;66.22;23.90;;;0.90;99.90;;;;;;6238709;23;20134;-78
2022/12/30 08:07:52;;;;;;;60.95;23.92;;;1.60;99.90;;;;;;6220427;23;20016;-78
2022/12/30 08:10:20;;;;;;;64.07;23.25;;;2.00;99.90;;;;;;6220924;23;20024;-78
2022/12/30 08:12:48;;;;;;;72.05;26.02;;;2.00;99.90;;;;;;6243945;23;20504;-78
2022/12/30 08:15:16;;;;;;;67.00;23.40;;;2.10;99.90;;;;;;6244644;23;20016;-78
2022/12/30 08:17:43;;;;;;;62.78;22.85;;;2.10;99.90;;;;;;6221026;23;20016;-79
2022/12/30 08:20:11;;;;;;;63.83;24.13;;;2.00;99.90;;;;;;6221086;23;20585;-78
2022/12/30 08:22:41;;;;;;;62.53;23.15;;;2.20;99.90;;;;;;6220456;23;20020;-78
2022/12/30 08:25:09;;;;;;;58.25;22.02;;;2.20;99.90;;;;;;6245529;23;20432;-78
2022/12/30 08:27:46;;;;;;;54.28;21.35;;;2.30;99.90;;;;;;6244917;23;20091;-79
2022/12/30 08:30:16;;;;;;;60.97;23.50;;;2.10;99.90;;;;;;6219110;23;20459;-79
2022/12/30 08:32:45;;;;;;;55.10;23.98;;;2.20;99.90;;;;;;6238663;23;20024;-79
2022/12/30 08:35:13;;;;;;;54.80;22.58;;;2.30;99.90;;;;;;6213923;23;20629;-78
2022/12/30 08:37:41;;;;;;;58.00;22.73;;;2.30;99.90;;;;;;6214556;23;20387;-78
2022/12/30 08:40:09;;;;;;;53.22;20.73;;;1.90;99.90;;;;;;6218267;23;20016;-78
2022/12/30 08:42:40;;;;;;;54.67;20.73;;;2.20;99.90;;;;;;6218855;23;20074;-78
2022/12/30 08:45:10;;;;;;;61.60;23.00;;;2.50;99.90;;;;;;6218888;23;20024;-78
2022/12/30 08:47:40;;;;;;;59.75;25.00;;;2.40;99.90;;;;;;6219917;23;20012;-78
2022/12/30 08:50:08;;;;;;;62.35;24.83;;;2.80;99.90;;;;;;6221322;23;20012;-78
2022/12/30 08:52:37;;;;;;;60.83;23.35;;;2.50;99.90;;;;;;6245353;23;20024;-78
2022/12/30 08:55:05;;;;;;;59.90;23.63;;;1.50;99.90;;;;;;6242908;23;20504;-77
2022/12/30 08:57:32;;;;;;;57.80;22.45;;;2.60;99.90;;;;;;6217058;23;20028;-77
2022/12/30 09:00:00;;;;;;;71.43;24.65;;;2.40;99.90;;;;;;6243003;23;20020;-78
2022/12/30 09:02:28;;;;;;;58.38;22.13;;;2.60;99.90;;;;;;6194786;23;20279;-78
2022/12/30 09:04:55;;;;;;;55.75;23.10;;;2.70;99.90;;;;;;6245172;23;20054;-78
2022/12/30 09:07:23;;;;;;;63.42;23.52;;;2.60;99.90;;;;;;6217985;23;20024;-78
2022/12/30 09:10:12;;;;;;;63.65;23.85;;;2.70;99.90;;;;;;6246559;23;20020;-78
2022/12/30 09:12:40;;;;;;;51.35;22.27;;;2.80;99.90;;;;;;6244994;23;20020;-78
2022/12/30 09:15:08;;;;;;;63.00;26.73;;;2.80;99.90;;;;;;6244193;23;20016;-78
2022/12/30 09:17:36;;;;;;;58.10;26.30;;;2.80;99.90;;;;;;6243458;23;20012;-78
2022/12/30 09:20:07;;;;;;;68.25;30.88;;;2.90;99.90;;;;;;6218895;23;20046;-78
2022/12/30 09:22:39;;;;;;;60.72;23.73;;;2.80;99.90;;;;;;6244354;23;20347;-78
2022/12/30 09:25:07;;;;;;;63.83;23.50;;;3.10;99.90;;;;;;6242922;23;20103;-78
2022/12/30 09:27:35;;;;;;;61.70;26.13;;;3.00;99.90;;;;;;6219459;23;20020;-78
2022/12/30 09:30:06;;;;;;;68.53;25.20;;;3.00;99.90;;;;;;6218941;23;20031;-79
2022/12/30 09:32:34;;;;;;;57.58;22.02;;;3.00;99.90;;;;;;6243383;23;20127;-79
2022/12/30 09:35:01;;;;;;;57.35;22.52;;;2.90;99.90;;;;;;6242549;23;20016;-78
2022/12/30 09:37:28;;;;;;;58.13;22.80;;;3.30;99.90;;;;;;6212902;23;20521;-78
2022/12/30 09:39:56;;;;;;;50.83;19.75;;;3.10;99.90;;;;;;6213714;23;20032;-78
2022/12/30 09:45:41;;;;;;;55.80;23.67;;;3.90;99.90;;;;;;6219563;23;20023;-78
2022/12/30 09:48:17;;;;;;;54.03;20.63;;;3.20;99.90;;;;;;6212610;23;20024;-80
2022/12/30 09:50:51;;;;;;;54.60;19.88;;;3.20;99.90;;;;;;6238617;23;20038;-78
2022/12/30 09:53:35;;;;;;;56.30;22.33;;;3.30;99.90;;;;;;6240287;23;20022;-78
2022/12/30 09:56:14;;;;;;;53.05;21.63;;;3.30;99.90;;;;;;6220351;23;20739;-77
2022/12/30 09:58:44;;;;;;;98.05;30.45;;;3.40;99.90;;;;;;6217048;23;20020;-78
2022/12/30 10:01:22;;;;;;;88.47;31.05;;;3.40;99.90;;;;;;6219857;23;20051;-78
2022/12/30 10:03:58;;;;;;;60.67;23.85;;;2.70;99.90;;;;;;6244053;23;20456;-78
2022/12/30 10:06:38;;;;;;;62.45;23.88;;;3.40;99.90;;;;;;6244604;23;20027;-78
2022/12/30 10:09:27;;;;;;;58.60;20.80;;;3.50;99.90;;;;;;6217570;23;20724;-78
2022/12/30 10:12:06;;;;;;;60.47;23.50;;;3.50;99.90;;;;;;6218284;23;20043;-78
2022/12/30 10:15:10;;;;;;;68.60;25.92;;;3.50;99.90;;;;;;6217002;23;20102;-78
2022/12/30 10:17:58;;;;;;;84.18;31.23;;;3.40;99.90;;;;;;6219635;23;20020;-78
2022/12/30 10:20:57;;;;;;;75.35;27.02;;;3.60;99.90;;;;;;6246381;23;20721;-78
2022/12/30 10:23:31;;;;;;;83.97;31.63;;;3.60;99.90;;;;;;6244069;23;20028;-78
2022/12/30 10:26:30;;;;;;;65.63;26.55;;;3.50;99.90;;;;;;6218185;23;20066;-79
2022/12/30 10:29:05;;;;;;;50.25;19.52;;;3.70;99.90;;;;;;6218316;23;20782;-79
2022/12/30 10:31:35;;;;;;;61.97;23.63;;;3.80;99.90;;;;;;6219329;23;20495;-79
2022/12/30 10:34:21;;;;;;;59.40;23.75;;;3.70;99.90;;;;;;6216304;23;20523;-79
2022/12/30 10:37:10;;;;;;;58.67;22.50;;;3.80;99.90;;;;;;6245243;23;20016;-81
2022/12/30 10:39:56;;;;;;;67.32;27.05;;;3.90;99.90;;;;;;6244753;23;20024;-80
2022/12/30 12:09:41;;;;;;;73.30;27.90;;;4.60;99.90;;;;;;6211881;22;20031;31
2022/12/30 12:12:16;;;;;;;123.30;45.35;;;4.60;99.90;;;;;;6134493;23;20025;-78
2022/12/30 12:15:06;;;;;;;102.65;35.45;;;4.70;99.90;;;;;;6159852;23;20024;-77
2022/12/30 12:17:46;;;;;;;101.00;38.53;;;4.80;99.90;;;;;;6161360;23;20055;-77
2022/12/30 12:20:25;;;;;;;82.68;33.95;;;4.80;99.90;;;;;;6161340;23;20017;-77
2022/12/30 12:23:17;;;;;;;78.32;29.25;;;4.80;99.90;;;;;;6139541;23;20021;-77
2022/12/30 12:26:02;;;;;;;81.13;29.70;;;4.70;99.90;;;;;;6137402;23;20025;-77
2022/12/30 12:28:31;;;;;;;82.78;29.65;;;4.80;99.90;;;;;;6133251;23;20029;-78
2022/12/30 12:31:33;;;;;;;91.72;36.83;;;4.70;99.90;;;;;;6162070;23;20021;-78
2022/12/30 12:34:19;;;;;;;86.95;32.83;;;4.70;99.90;;;;;;6040916;23;20462;-78
2022/12/30 12:36:59;;;;;;;78.43;28.98;;;4.80;99.90;;;;;;6139588;23;20017;-78
2022/12/30 12:40:04;;;;;;;85.93;32.22;;;4.70;99.90;;;;;;6161824;23;20516;-78
2022/12/30 12:42:55;;;;;;;83.38;31.13;;;4.60;99.90;;;;;;6162516;23;20071;-78
2022/12/30 12:46:03;;;;;;;79.45;29.98;;;4.70;99.90;;;;;;6163950;23;20104;-78
2022/12/30 12:48:49;;;;;;;92.93;30.50;;;4.70;99.90;;;;;;6112671;23;20021;-78
2022/12/30 12:51:51;;;;;;;95.03;31.08;;;5.00;99.90;;;;;;6160918;23;20056;-78
2022/12/30 12:54:34;;;;;;;97.15;34.85;;;4.80;99.90;;;;;;6185773;23;20387;-78
2022/12/30 12:57:16;;;;;;;81.35;30.00;;;4.70;99.90;;;;;;6162170;23;20013;-78
2022/12/30 13:00:07;;;;;;;96.25;32.45;;;4.70;99.90;;;;;;6187414;23;20105;-78
2022/12/30 13:02:47;;;;;;;95.28;34.15;;;5.00;99.90;;;;;;6161285;23;20021;-78
2022/12/30 13:05:36;;;;;;;86.55;31.27;;;4.80;99.90;;;;;;6162880;23;20052;-78
2022/12/30 13:08:34;;;;;;;91.82;32.25;;;4.40;99.90;;;;;;6136127;23;20030;-78
2022/12/30 13:11:21;;;;;;;76.40;29.48;;;4.70;99.90;;;;;;6162936;23;20025;-77
2022/12/30 13:14:11;;;;;;;90.45;29.52;;;4.80;99.90;;;;;;6164396;23;20402;-78
2022/12/30 13:16:43;;;;;;;85.88;30.92;;;4.70;99.90;;;;;;6162566;23;20025;-77
2022/12/30 13:19:20;;;;;;;91.13;31.70;;;4.70;99.90;;;;;;6162961;23;20028;-77
2022/12/30 13:21:52;;;;;;;90.03;31.20;;;4.70;99.90;;;;;;6162169;23;20017;-77
2022/12/30 13:24:32;;;;;;;109.33;36.63;;;4.80;99.90;;;;;;6137594;23;20108;-77
2022/12/30 13:27:01;;;;;;;102.53;36.78;;;4.80;99.90;;;;;;6140021;23;20048;-77
2022/12/30 13:29:38;;;;;;;91.95;32.85;;;4.90;99.90;;;;;;6162260;23;20021;-77
2022/12/30 13:32:31;;;;;;;88.47;33.97;;;5.00;99.90;;;;;;6164198;23;20025;-77
2022/12/30 13:35:25;;;;;;;96.28;34.42;;;4.90;99.90;;;;;;6162186;23;20373;-78
2022/12/30 13:38:24;;;;;;;92.53;30.77;;;4.90;99.90;;;;;;6101497;23;20701;-78
2022/12/30 13:41:07;;;;;;;96.25;32.47;;;4.90;99.90;;;;;;6138144;23;20039;-78
2022/12/30 13:43:46;;;;;;;91.40;32.88;;;5.20;99.90;;;;;;6163675;23;20077;-77
2022/12/30 13:46:29;;;;;;;97.32;31.30;;;4.80;99.90;;;;;;6138592;23;20016;-77
2022/12/30 13:49:13;;;;;;;94.90;32.92;;;4.50;99.90;;;;;;6139567;23;20017;-77
2022/12/30 13:51:51;;;;;;;;;;;4.90;99.90;;;;;;6140965;23;20021;-77
2022/12/30 13:54:19;;;;;;;87.28;29.58;;;4.90;99.90;;;;;;6164822;23;20216;-77
2022/12/30 13:56:52;;;;;;;90.05;29.88;;;4.20;99.90;;;;;;6162885;23;20074;-77
2022/12/30 13:59:33;;;;;;;98.18;34.45;;;5.10;99.90;;;;;;6162982;23;20013;-79
2022/12/30 14:02:22;;;;;;;84.95;30.35;;;4.80;99.90;;;;;;6138580;23;20452;-79
2022/12/30 14:04:55;;;;;;;91.38;29.60;;;4.90;99.90;;;;;;6162640;23;20021;-78
2022/12/30 14:07:38;;;;;;;80.47;31.33;;;4.70;99.90;;;;;;6161855;23;20062;-78
2022/12/30 14:10:17;;;;;;;85.30;28.02;;;4.70;99.90;;;;;;6163533;23;20031;-78
2022/12/30 14:13:14;;;;;;;83.93;31.10;;;4.70;99.90;;;;;;6138545;23;20025;-79
2022/12/30 14:15:41;;;;;;;100.25;34.03;;;4.70;99.90;;;;;;6137447;23;20027;-78
2022/12/30 14:18:36;;;;;;;110.15;36.17;;;4.70;99.90;;;;;;6137714;23;20025;-78
2022/12/30 14:21:11;;;;;;;94.40;33.27;;;4.80;99.90;;;;;;6162902;23;20410;-78
2022/12/30 14:23:42;;;;;;;104.22;33.17;;;4.70;99.90;;;;;;6137057;23;20017;-78
2022/12/30 14:26:25;;;;;;;112.22;37.35;;;4.80;99.90;;;;;;6161506;23;20067;-78
2022/12/30 14:29:03;;;;;;;124.72;39.35;;;4.80;99.90;;;;;;6162596;23;20108;-78
2022/12/30 14:31:45;;;;;;;113.40;37.65;;;4.70;99.90;;;;;;6116033;23;20455;-78
2022/12/30 14:34:39;;;;;;;100.30;34.63;;;4.70;99.90;;;;;;6166179;23;20021;-78
2022/12/30 14:37:20;;;;;;;87.45;32.22;;;4.70;99.90;;;;;;6171451;23;20017;-78
2022/12/30 14:39:51;;;;;;;93.63;36.72;;;4.60;99.90;;;;;;6172851;23;20017;-78
2022/12/30 14:42:31;;;;;;;93.72;36.28;;;4.50;99.90;;;;;;6169080;23;20013;-78
2022/12/30 14:45:03;;;;;;;100.07;35.15;;;4.60;99.90;;;;;;6163454;23;20021;-78
2022/12/30 14:47:46;;;;;;;87.53;34.20;;;4.60;99.90;;;;;;6163375;23;20020;-79
2022/12/30 14:50:20;;;;;;;83.97;32.90;;;4.70;99.90;;;;;;6162061;23;20025;-79
2022/12/30 14:53:11;;;;;;;85.13;32.03;;;4.60;99.90;;;;;;6161426;23;20047;-79
2022/12/30 14:55:46;;;;;;;92.97;34.97;;;4.50;99.90;;;;;;6188641;23;20024;-78
2022/12/30 14:58:20;;;;;;;84.07;32.83;;;4.80;99.90;;;;;;6139173;23;20129;-78
2022/12/30 15:00:52;;;;;;;90.05;34.42;;;4.50;99.90;;;;;;6139007;23;20021;-78
2022/12/30 15:03:23;;;;;;;81.22;31.83;;;4.40;99.90;;;;;;6163184;23;20013;-78
2022/12/30 15:06:01;;;;;;;81.20;30.95;;;4.40;99.90;;;;;;6138510;23;20082;-78
2022/12/30 15:08:36;;;;;;;89.75;34.22;;;4.30;99.90;;;;;;6163592;23;20025;-78
2022/12/30 15:11:08;;;;;;;100.55;36.28;;;4.20;99.90;;;;;;6161750;23;20029;-78
2022/12/30 15:13:50;;;;;;;93.18;39.00;;;4.30;99.90;;;;;;6162329;23;20020;-78
2022/12/30 15:16:29;;;;;;;100.25;36.53;;;4.10;99.90;;;;;;6163664;23;20471;-78
2022/12/30 15:18:59;;;;;;;101.15;37.25;;;4.20;99.90;;;;;;6174083;23;20017;-78
2022/12/30 15:21:33;;;;;;;113.97;42.95;;;3.90;99.90;;;;;;6175545;23;20013;-78
2022/12/30 15:24:00;;;;;;;101.82;41.17;;;4.20;99.90;;;;;;6173614;23;20025;-78
2022/12/30 15:26:42;;;;;;;91.70;35.00;;;4.40;99.90;;;;;;6150457;23;20024;-78
2022/12/30 15:29:15;;;;;;;120.57;52.33;;;4.30;99.90;;;;;;6148411;23;20033;-78
2022/12/30 15:31:50;;;;;;;91.78;31.23;;;4.40;99.90;;;;;;6195766;23;20048;-79
2022/12/30 15:34:29;;;;;;;86.45;34.25;;;4.40;99.90;;;;;;6140725;23;20033;-79